createdAt,value
2022-11-24T00:01:08.748Z,99647.69
2022-11-24T00:03:35.878Z,99651.44
2022-11-24T00:06:04.788Z,99620.31
2022-11-24T00:08:31.332Z,99623.53
2022-11-24T00:11:03.391Z,99645.97
2022-11-24T00:13:29.840Z,99659.44
2022-11-24T00:16:07.734Z,99650.13
2022-11-24T00:18:34.177Z,99674.94
2022-11-24T00:21:00.791Z,99677.69
2022-11-24T00:23:27.489Z,99644.31
2022-11-24T00:25:54.013Z,99680.69
2022-11-24T00:28:20.460Z,99685.56
2022-11-24T00:30:46.970Z,99682.38
2022-11-24T00:33:13.494Z,99641.09
2022-11-24T00:35:39.914Z,99641.81
2022-11-24T00:38:06.434Z,99691.44
2022-11-24T00:40:35.124Z,99642.09
2022-11-24T00:43:01.732Z,99684.03
2022-11-24T00:45:28.205Z,99686.00
2022-11-24T00:47:54.645Z,99648.63
2022-11-24T00:50:21.322Z,99687.41
2022-11-24T00:52:47.839Z,99645.53
2022-11-24T00:55:14.327Z,99650.31
2022-11-24T00:57:40.777Z,99661.34
2022-11-24T01:00:08.278Z,99681.81
2022-11-24T01:02:34.855Z,99658.25
2022-11-24T01:05:03.196Z,99677.78
2022-11-24T01:07:30.693Z,99686.56
2022-11-24T01:09:57.254Z,99703.72
2022-11-24T01:12:23.718Z,99701.06
2022-11-24T01:14:50.182Z,99706.66
2022-11-24T01:17:16.665Z,99675.66
2022-11-24T01:19:43.140Z,99703.44
2022-11-24T01:22:09.701Z,99639.19
2022-11-24T01:24:36.447Z,99713.00
2022-11-24T01:27:03.912Z,99713.84
2022-11-24T01:29:30.396Z,99693.66
2022-11-24T01:31:56.873Z,99720.72
2022-11-24T01:34:23.553Z,99700.94
2022-11-24T01:36:50.216Z,99727.13
2022-11-24T01:39:16.699Z,99689.19
2022-11-24T01:41:43.239Z,99739.47
2022-11-24T01:44:23.041Z,99739.47
2022-11-24T01:47:00.792Z,99713.50
2022-11-24T01:49:41.255Z,99680.69
2022-11-24T01:52:15.408Z,99713.75
2022-11-24T01:54:45.418Z,99735.47
2022-11-24T01:57:31.286Z,99733.72
2022-11-24T02:00:06.038Z,99731.34
2022-11-24T02:02:32.747Z,99734.38
2022-11-24T02:05:03.904Z,99716.84
2022-11-24T02:07:30.881Z,99732.47
2022-11-24T02:10:07.464Z,99737.03
2022-11-24T02:12:34.145Z,99738.75
2022-11-24T02:15:00.703Z,99746.66
2022-11-24T02:17:27.213Z,99737.19
2022-11-24T02:20:02.390Z,99711.84
2022-11-24T02:22:55.084Z,99749.50
2022-11-24T02:25:31.429Z,99759.28
2022-11-24T02:27:59.393Z,99755.50
2022-11-24T02:30:25.992Z,99716.84
2022-11-24T02:32:52.662Z,99710.50
2022-11-24T02:35:19.869Z,99757.72
2022-11-24T02:37:46.381Z,99761.59
2022-11-24T02:40:16.341Z,99754.50
2022-11-24T02:42:44.510Z,99758.41
2022-11-24T02:45:11.742Z,99763.84
2022-11-24T02:47:38.315Z,99728.81
2022-11-24T02:50:05.217Z,99763.56
2022-11-24T02:52:31.681Z,99767.31
2022-11-24T02:54:58.122Z,99766.94
2022-11-24T02:57:24.622Z,99718.34
2022-11-24T02:59:51.106Z,99779.66
2022-11-24T03:02:17.762Z,99783.38
2022-11-24T03:04:44.656Z,99781.16
2022-11-24T03:07:11.164Z,99751.03
2022-11-24T03:09:37.744Z,99746.16
2022-11-24T03:12:04.500Z,99758.81
2022-11-24T03:14:30.986Z,99784.78
2022-11-24T03:16:57.527Z,99793.03
2022-11-24T03:19:24.052Z,99768.13
2022-11-24T03:21:50.483Z,99789.53
2022-11-24T03:24:17.018Z,99793.59
2022-11-24T03:26:43.487Z,99793.97
2022-11-24T03:29:09.977Z,99795.78
2022-11-24T03:31:36.508Z,99756.94
2022-11-24T03:34:03.087Z,99780.75
2022-11-24T03:36:29.562Z,99794.16
2022-11-24T03:38:56.462Z,99757.84
2022-11-24T03:41:23.095Z,99806.84
2022-11-24T03:43:49.562Z,99790.72
2022-11-24T03:46:16.066Z,99800.59
2022-11-24T03:48:42.559Z,99810.31
2022-11-24T03:51:09.599Z,99802.81
2022-11-24T03:53:36.135Z,99768.03
2022-11-24T03:56:03.180Z,99793.44
2022-11-24T03:58:30.008Z,99808.31
2022-11-24T04:00:57.295Z,99794.06
2022-11-24T04:03:24.219Z,99792.81
2022-11-24T04:05:50.803Z,99748.09
2022-11-24T04:08:17.933Z,99793.03
2022-11-24T04:10:44.411Z,99813.09
2022-11-24T04:13:13.766Z,99778.22
2022-11-24T04:15:41.272Z,99830.97
2022-11-24T04:18:08.608Z,99811.41
2022-11-24T04:20:35.496Z,99825.69
2022-11-24T04:23:02.113Z,99830.72
2022-11-24T04:25:28.657Z,99835.56
2022-11-24T04:27:56.181Z,99835.19
2022-11-24T04:30:24.390Z,99821.72
2022-11-24T04:32:50.970Z,99819.78
2022-11-24T04:35:17.840Z,99829.31
2022-11-24T04:37:44.289Z,99842.44
2022-11-24T04:40:11.548Z,99841.59
2022-11-24T04:42:38.277Z,99845.41
2022-11-24T04:45:06.259Z,99847.63
2022-11-24T04:47:33.029Z,99849.06
2022-11-24T04:50:00.301Z,99854.72
2022-11-24T04:52:27.011Z,99857.66
2022-11-24T04:54:53.923Z,99803.66
2022-11-24T04:57:22.990Z,99862.97
2022-11-24T04:59:50.429Z,99868.56
2022-11-24T05:02:17.451Z,99870.94
2022-11-24T05:04:44.610Z,99875.13
2022-11-24T05:07:17.916Z,99881.84
2022-11-24T05:10:05.441Z,99881.84
2022-11-24T05:12:32.306Z,99848.78
2022-11-24T05:14:59.473Z,99883.91
2022-11-24T05:17:34.723Z,99903.00
2022-11-24T05:20:01.713Z,99878.47
2022-11-24T05:22:29.308Z,99908.91
2022-11-24T05:24:55.794Z,99895.25
2022-11-24T05:27:22.419Z,99914.22
2022-11-24T05:29:48.915Z,99907.94
2022-11-24T05:32:15.749Z,99867.00
2022-11-24T05:34:42.244Z,99914.31
2022-11-24T05:37:08.928Z,99918.53
2022-11-24T05:39:36.645Z,99877.81
2022-11-24T05:42:25.420Z,99934.44
2022-11-24T05:44:52.891Z,99924.88
2022-11-24T05:47:19.945Z,99935.25
2022-11-24T05:49:46.406Z,99897.22
2022-11-24T05:52:13.117Z,99936.41
2022-11-24T05:54:39.656Z,99918.53
2022-11-24T05:57:06.168Z,99940.78
2022-11-24T05:59:32.787Z,99898.63
2022-11-24T06:01:59.880Z,99925.47
2022-11-24T06:04:26.433Z,99934.09
2022-11-24T06:06:52.905Z,99919.28
2022-11-24T06:09:19.417Z,99944.34
2022-11-24T06:11:47.349Z,99952.41
2022-11-24T06:14:14.420Z,99957.06
2022-11-24T06:16:40.934Z,99956.28
2022-11-24T06:19:07.520Z,99964.31
2022-11-24T06:21:34.038Z,99962.66
2022-11-24T06:24:00.667Z,99965.28
2022-11-24T06:26:27.578Z,99973.28
2022-11-24T06:28:54.268Z,99968.28
2022-11-24T06:31:20.826Z,99974.75
2022-11-24T06:33:47.843Z,99975.84
2022-11-24T06:36:15.182Z,99975.09
2022-11-24T06:38:41.682Z,99981.94
2022-11-24T06:41:11.891Z,99981.50
2022-11-24T06:43:38.490Z,99987.16
2022-11-24T06:46:05.342Z,99955.84
2022-11-24T06:48:32.063Z,99990.84
2022-11-24T06:51:08.593Z,99991.63
2022-11-24T06:53:39.627Z,99991.75
2022-11-24T06:56:13.750Z,100000.03
2022-11-24T06:58:46.782Z,100003.91
2022-11-24T07:01:17.928Z,99998.28
2022-11-24T07:03:45.195Z,99974.13
2022-11-24T07:06:11.634Z,100012.19
2022-11-24T07:08:38.169Z,99977.66
2022-11-24T07:11:09.550Z,100015.94
2022-11-24T07:13:36.416Z,100007.44
2022-11-24T07:16:19.066Z,100023.38
2022-11-24T07:18:46.859Z,100030.44
2022-11-24T07:21:13.837Z,99982.88
2022-11-24T07:23:40.522Z,100033.75
2022-11-24T07:26:08.126Z,100036.66
2022-11-24T07:28:36.679Z,100044.69
2022-11-24T07:31:11.609Z,100021.84
2022-11-24T07:33:38.458Z,100048.06
2022-11-24T07:36:06.303Z,100059.25
2022-11-24T07:38:33.821Z,100051.94
2022-11-24T07:41:02.249Z,100064.91
2022-11-24T07:43:30.491Z,100059.16
2022-11-24T07:45:57.241Z,100058.16
2022-11-24T07:48:23.824Z,100019.84
2022-11-24T07:50:55.564Z,100036.47
2022-11-24T07:53:22.649Z,100073.25
2022-11-24T07:56:00.525Z,100033.06
2022-11-24T07:58:32.345Z,100060.56
2022-11-24T08:00:59.542Z,100047.47
2022-11-24T08:03:26.117Z,100064.94
2022-11-24T08:08:43.329Z,100088.00
2022-11-24T08:11:12.590Z,100103.63
2022-11-24T08:13:39.511Z,100074.63
2022-11-24T08:16:07.974Z,100078.03
2022-11-24T08:18:35.596Z,100102.59
2022-11-24T08:21:02.559Z,100110.06
2022-11-24T08:23:29.297Z,100086.03
2022-11-24T08:25:57.223Z,100120.59
2022-11-24T08:28:24.307Z,100112.63
2022-11-24T08:30:51.259Z,100100.03
2022-11-24T08:33:17.802Z,100102.66
2022-11-24T08:35:44.338Z,100124.03
2022-11-24T08:38:10.879Z,100136.63
2022-11-24T08:40:37.504Z,100107.34
2022-11-24T08:43:04.076Z,100136.94
2022-11-24T08:45:30.838Z,100138.63
2022-11-24T08:47:58.096Z,100148.88
2022-11-24T08:50:25.470Z,100154.75
2022-11-24T08:52:53.624Z,100138.06
2022-11-24T08:55:20.769Z,100137.66
2022-11-24T08:57:47.248Z,100144.34
2022-11-24T09:00:14.297Z,100166.72
2022-11-24T09:02:42.497Z,100173.00
2022-11-24T09:05:28.737Z,100126.41
2022-11-24T09:07:55.620Z,100176.50
2022-11-24T09:10:22.408Z,100176.63
2022-11-24T09:12:51.186Z,100179.84
2022-11-24T09:15:20.148Z,100187.06
2022-11-24T09:17:46.623Z,100186.84
2022-11-24T09:20:13.231Z,100194.78
2022-11-24T09:22:41.648Z,100191.91
2022-11-24T09:25:08.443Z,100191.66
2022-11-24T09:27:35.625Z,100201.06
2022-11-24T09:30:02.594Z,100205.88
2022-11-24T09:32:30.614Z,100165.38
2022-11-24T09:34:57.213Z,100173.63
2022-11-24T09:37:28.143Z,100211.41
2022-11-24T09:39:56.386Z,100211.56
2022-11-24T09:42:38.145Z,100225.34
2022-11-24T09:45:12.329Z,100229.06
2022-11-24T09:47:46.798Z,100239.31
2022-11-24T09:50:22.408Z,100236.84
2022-11-24T09:53:03.497Z,100237.72
2022-11-24T09:55:45.096Z,100248.69
2022-11-24T09:58:39.229Z,100251.44
2022-11-24T10:01:20.636Z,100257.06
2022-11-24T10:03:53.891Z,100246.97
2022-11-24T10:06:25.012Z,100252.34
2022-11-24T10:09:23.677Z,100258.38
2022-11-24T10:12:14.933Z,100256.53
2022-11-24T10:15:02.985Z,100259.81
2022-11-24T10:17:43.333Z,100258.44
2022-11-24T10:20:35.490Z,100264.81
2022-11-24T10:23:20.227Z,100276.72
2022-11-24T10:25:51.768Z,100270.06
2022-11-24T10:28:18.425Z,100286.63
2022-11-24T10:30:45.162Z,100287.28
2022-11-24T10:33:18.674Z,100283.25
2022-11-24T10:35:57.957Z,100277.47
2022-11-24T10:38:52.869Z,100281.16
2022-11-24T10:41:51.599Z,100285.44
2022-11-24T10:44:19.874Z,100290.50
2022-11-24T10:46:46.754Z,100281.31
2022-11-24T10:49:18.992Z,100279.34
2022-11-24T10:52:05.950Z,100291.88
2022-11-24T10:54:33.415Z,100263.75
2022-11-24T10:57:00.026Z,100283.63
2022-11-24T10:59:37.262Z,100306.06
2022-11-24T11:02:38.768Z,100312.56
2022-11-24T11:05:23.778Z,100310.81
2022-11-24T11:07:50.366Z,100305.63
2022-11-24T11:10:23.421Z,100306.19
2022-11-24T11:12:58.924Z,100309.53
2022-11-24T11:15:30.064Z,100318.50
2022-11-24T11:18:00.521Z,100317.28
2022-11-24T11:20:33.947Z,100330.06
2022-11-24T11:23:03.804Z,100324.78
2022-11-24T11:25:34.824Z,100327.69
2022-11-24T11:28:16.532Z,100329.38
2022-11-24T11:31:17.763Z,100336.44
2022-11-24T11:34:09.505Z,100311.38
2022-11-24T11:36:46.000Z,100348.03
2022-11-24T11:39:36.560Z,100332.13
2022-11-24T11:42:09.135Z,100335.22
2022-11-24T11:44:39.974Z,100342.19
2022-11-24T11:47:50.888Z,100337.88
2022-11-24T11:50:22.559Z,100339.81
2022-11-24T11:53:01.261Z,100343.94
2022-11-24T11:55:49.871Z,100339.50
2022-11-24T11:58:47.348Z,100344.44
2022-11-24T12:01:30.644Z,100349.50
2022-11-24T12:04:16.028Z,100353.13
2022-11-24T12:07:08.324Z,100301.53
2022-11-24T12:09:56.896Z,100346.44
2022-11-24T12:12:28.549Z,100355.22
2022-11-24T12:15:20.253Z,100355.19
2022-11-24T12:17:55.500Z,100354.13
2022-11-24T12:20:40.956Z,100360.81
2022-11-24T12:23:18.864Z,100359.44
2022-11-24T12:26:17.867Z,100352.72
2022-11-24T12:29:19.032Z,100358.75
2022-11-24T12:32:03.753Z,100361.03
2022-11-24T12:34:51.579Z,100364.53
2022-11-24T12:37:38.157Z,100364.19
2022-11-24T12:40:13.855Z,100366.13
2022-11-24T12:42:52.552Z,100366.19
2022-11-24T12:45:25.952Z,100360.56
2022-11-24T12:48:21.176Z,100377.09
2022-11-24T12:50:49.006Z,100368.38
2022-11-24T12:53:46.029Z,100377.44
2022-11-24T12:56:14.665Z,100370.88
2022-11-24T12:58:50.164Z,100365.00
2022-11-24T13:01:31.995Z,100369.88
2022-11-24T13:04:15.873Z,100325.50
2022-11-24T13:06:49.628Z,100371.75
2022-11-24T13:09:17.050Z,100331.72
2022-11-24T13:11:48.357Z,100375.94
2022-11-24T13:14:31.453Z,100368.28
2022-11-24T13:17:29.019Z,100363.75
2022-11-24T13:19:46.075Z,100325.56
2022-11-24T13:22:23.344Z,100374.78
2022-11-24T13:25:12.453Z,100378.47
2022-11-24T13:27:42.195Z,100373.91
2022-11-24T13:30:33.815Z,100379.75
2022-11-24T13:33:16.396Z,100379.06
2022-11-24T13:36:24.720Z,100382.25
2022-11-24T13:38:52.928Z,100372.00
2022-11-24T13:41:32.032Z,100377.94
2022-11-24T13:44:14.685Z,100368.59
2022-11-24T13:47:07.295Z,100351.44
2022-11-24T13:49:38.795Z,100382.38
2022-11-24T13:52:36.568Z,100380.59
2022-11-24T13:55:24.922Z,100384.66
2022-11-24T13:57:58.534Z,100377.66
2022-11-24T14:00:35.793Z,100386.19
2022-11-24T14:03:24.868Z,100385.63
2022-11-24T14:05:52.486Z,100346.00
2022-11-24T14:08:26.315Z,100391.31
2022-11-24T14:10:54.712Z,100392.41
2022-11-24T14:13:27.471Z,100399.66
2022-11-24T14:16:09.360Z,100401.97
2022-11-24T14:18:40.859Z,100382.34
2022-11-24T14:21:26.887Z,100393.47
2022-11-24T14:24:10.249Z,100394.75
2022-11-24T14:26:39.222Z,100398.81
2022-11-24T14:29:06.812Z,100395.56
2022-11-24T14:31:33.565Z,100400.16
2022-11-24T14:34:12.436Z,100395.25
2022-11-24T14:36:39.762Z,100396.03
2022-11-24T14:39:07.123Z,100375.34
2022-11-24T14:41:34.008Z,100408.47
2022-11-24T14:44:54.150Z,100408.47
2022-11-24T14:47:31.269Z,100403.44
2022-11-24T14:50:09.355Z,100411.25
2022-11-24T14:52:36.092Z,100381.16
2022-11-24T14:55:21.462Z,100418.56
2022-11-24T14:57:48.846Z,100419.53
2022-11-24T15:00:24.208Z,100423.75
2022-11-24T15:02:54.328Z,100423.91
2022-11-24T15:05:22.404Z,100418.28
2022-11-24T15:07:50.303Z,100420.72
2022-11-24T15:10:33.797Z,100420.09
2022-11-24T15:13:02.859Z,100426.31
2022-11-24T15:15:34.258Z,100412.97
2022-11-24T15:18:02.273Z,100429.00
2022-11-24T15:20:33.142Z,100424.94
2022-11-24T15:23:20.360Z,100433.53
2022-11-24T15:25:47.521Z,100412.09
2022-11-24T15:28:14.042Z,100435.53
2022-11-24T15:30:40.537Z,100384.72
2022-11-24T15:33:15.593Z,100431.19
2022-11-24T15:35:42.355Z,100439.38
2022-11-24T15:38:09.062Z,100436.09
2022-11-24T15:40:37.469Z,100443.66
2022-11-24T15:43:32.907Z,100450.59
2022-11-24T15:46:00.338Z,100449.63
2022-11-24T15:48:27.668Z,100444.69
2022-11-24T15:50:54.684Z,100353.41
2022-11-24T15:53:36.773Z,100451.13
2022-11-24T15:56:06.905Z,100415.69
2022-11-24T15:58:34.511Z,100451.50
2022-11-24T16:01:01.165Z,100453.59
2022-11-24T16:06:23.636Z,100454.59
2022-11-24T16:08:50.594Z,100410.06
2022-11-24T16:11:17.071Z,100466.88
2022-11-24T16:13:48.397Z,100465.91
2022-11-24T16:16:18.573Z,100456.22
2022-11-24T16:18:45.460Z,100437.03
2022-11-24T16:21:12.416Z,100479.19
2022-11-24T16:23:38.984Z,100409.31
2022-11-24T16:26:05.779Z,100439.56
2022-11-24T16:28:32.562Z,100481.84
2022-11-24T16:30:59.071Z,100479.34
2022-11-24T16:33:25.576Z,100444.47
2022-11-24T16:35:52.042Z,100479.75
2022-11-24T16:38:21.623Z,100462.00
2022-11-24T16:40:56.326Z,100475.44
2022-11-24T16:43:24.383Z,100478.75
2022-11-24T16:46:16.446Z,100460.06
2022-11-24T16:48:44.424Z,100476.81
2022-11-24T16:51:11.923Z,100470.84
2022-11-24T16:53:38.621Z,100478.66
2022-11-24T16:56:06.060Z,100487.56
2022-11-24T16:58:33.135Z,100491.94
2022-11-24T17:01:07.903Z,100482.91
2022-11-24T17:03:37.949Z,100481.09
2022-11-24T17:06:06.784Z,100484.28
2022-11-24T17:08:34.927Z,100462.59
2022-11-24T17:11:06.411Z,100479.25
2022-11-24T17:13:33.625Z,100446.34
2022-11-24T17:16:06.777Z,100444.78
2022-11-24T17:18:33.714Z,100475.97
2022-11-24T17:21:05.986Z,100479.81
2022-11-24T17:23:35.863Z,100428.19
2022-11-24T17:26:03.526Z,100473.22
2022-11-24T17:28:30.027Z,100421.94
2022-11-24T17:30:56.599Z,100480.22
2022-11-24T17:33:23.216Z,100457.47
2022-11-24T17:35:49.665Z,100477.72
2022-11-24T17:38:16.154Z,100472.78
2022-11-24T17:40:47.778Z,100460.00
2022-11-24T17:43:14.243Z,100488.66
2022-11-24T17:45:40.775Z,100458.69
2022-11-24T17:48:07.592Z,100441.19
2022-11-24T17:50:34.129Z,100485.56
2022-11-24T17:53:00.904Z,100480.00
2022-11-24T17:55:27.411Z,100477.59
2022-11-24T17:57:54.173Z,100444.38
2022-11-24T18:00:20.892Z,100495.56
2022-11-24T18:02:47.375Z,100491.25
2022-11-24T18:05:13.936Z,100456.38
2022-11-24T18:07:40.507Z,100447.84
2022-11-24T18:10:08.597Z,100486.28
2022-11-24T18:12:35.059Z,100487.47
2022-11-24T18:15:02.833Z,100498.22
2022-11-24T18:17:29.409Z,100497.47
2022-11-24T18:19:55.980Z,100476.50
2022-11-24T18:22:42.999Z,100488.56
2022-11-24T18:25:09.048Z,100467.84
2022-11-24T18:27:35.565Z,100499.50
2022-11-24T18:30:02.049Z,100490.63
2022-11-24T18:32:28.506Z,100486.00
2022-11-24T18:34:55.480Z,100437.16
2022-11-24T18:37:21.962Z,100492.28
2022-11-24T18:39:48.467Z,100452.47
2022-11-24T18:42:15.234Z,100497.72
2022-11-24T18:44:42.450Z,100513.13
2022-11-24T18:47:09.031Z,100508.91
2022-11-24T18:49:35.546Z,100496.41
2022-11-24T18:52:02.038Z,100512.50
2022-11-24T18:54:28.582Z,100504.78
2022-11-24T18:56:57.799Z,100503.50
2022-11-24T18:59:28.371Z,100511.69
2022-11-24T19:01:56.001Z,100514.91
2022-11-24T19:04:23.999Z,100516.75
2022-11-24T19:06:50.541Z,100512.75
2022-11-24T19:09:19.918Z,100527.25
2022-11-24T19:11:46.758Z,100477.50
2022-11-24T19:14:15.933Z,100523.63
2022-11-24T19:16:42.839Z,100531.72
2022-11-24T19:19:11.770Z,100476.22
2022-11-24T19:21:39.346Z,100530.50
2022-11-24T19:24:07.579Z,100529.59
2022-11-24T19:26:36.962Z,100529.88
2022-11-24T19:29:04.616Z,100530.66
2022-11-24T19:31:31.604Z,100522.84
2022-11-24T19:33:59.688Z,100513.34
2022-11-24T19:36:26.578Z,100522.66
2022-11-24T19:38:55.439Z,100519.84
2022-11-24T19:41:24.583Z,100518.06
2022-11-24T19:43:53.495Z,100518.31
2022-11-24T19:46:20.934Z,100524.84
2022-11-24T19:48:54.652Z,100527.44
2022-11-24T19:51:30.868Z,100530.44
2022-11-24T19:53:57.923Z,100526.91
2022-11-24T19:56:27.163Z,100527.72
2022-11-24T19:58:54.958Z,100532.59
2022-11-24T20:01:25.761Z,100532.78
2022-11-24T20:04:01.031Z,100526.53
2022-11-24T20:06:29.629Z,100520.19
2022-11-24T20:08:58.224Z,100524.78
2022-11-24T20:11:26.403Z,100522.19
2022-11-24T20:13:53.221Z,100526.13
2022-11-24T20:16:26.478Z,100517.91
2022-11-24T20:19:00.304Z,100520.00
2022-11-24T20:21:28.740Z,100522.25
2022-11-24T20:24:07.076Z,100487.63
2022-11-24T20:26:36.348Z,100514.91
2022-11-24T20:29:04.312Z,100531.53
2022-11-24T20:31:34.921Z,100530.59
2022-11-24T20:34:02.238Z,100499.63
2022-11-24T20:36:30.849Z,100517.72
2022-11-24T20:39:00.478Z,100516.25
2022-11-24T20:41:29.745Z,100507.13
2022-11-24T20:43:59.777Z,100517.97
2022-11-24T20:46:29.822Z,100522.00
2022-11-24T20:48:56.996Z,100520.75
2022-11-24T20:51:26.011Z,100528.97
2022-11-24T20:53:58.436Z,100514.22
2022-11-24T20:56:30.347Z,100511.59
2022-11-24T20:58:57.066Z,100517.22
2022-11-24T21:01:28.945Z,100520.13
2022-11-24T21:03:58.463Z,100494.69
2022-11-24T21:06:26.177Z,100517.31
2022-11-24T21:09:00.400Z,100525.41
2022-11-24T21:11:28.645Z,100524.41
2022-11-24T21:13:55.980Z,100517.69
2022-11-24T21:16:24.181Z,100517.13
2022-11-24T21:18:52.958Z,100511.09
2022-11-24T21:21:21.120Z,100480.09
2022-11-24T21:23:48.075Z,100514.69
2022-11-24T21:26:17.070Z,100512.28
2022-11-24T21:28:45.946Z,100492.97
2022-11-24T21:31:15.036Z,100489.34
2022-11-24T21:33:45.408Z,100525.63
2022-11-24T21:36:14.642Z,100524.50
2022-11-24T21:38:42.676Z,100519.75
2022-11-24T21:41:10.924Z,100423.44
2022-11-24T21:43:37.681Z,100458.69
2022-11-24T21:46:08.818Z,100525.31
2022-11-24T21:48:36.688Z,100517.00
2022-11-24T21:51:05.922Z,100513.47
2022-11-24T21:53:34.372Z,100428.88
2022-11-24T21:56:02.622Z,100518.13
2022-11-24T21:58:29.830Z,100520.59
2022-11-24T22:01:02.450Z,100493.19
2022-11-24T22:03:28.976Z,100515.50
2022-11-24T22:05:57.001Z,100469.47
2022-11-24T22:08:24.794Z,100515.44
2022-11-24T22:10:51.877Z,100481.22
2022-11-24T22:13:19.263Z,100498.16
2022-11-24T22:15:45.903Z,100495.50
2022-11-24T22:18:12.562Z,100450.41
2022-11-24T22:20:39.352Z,100494.06
2022-11-24T22:23:05.947Z,100434.63
2022-11-24T22:25:33.413Z,100494.41
2022-11-24T22:28:00.279Z,100489.72
2022-11-24T22:30:27.015Z,100494.03
2022-11-24T22:32:53.771Z,100459.94
2022-11-24T22:35:20.460Z,100487.38
2022-11-24T22:37:46.993Z,100470.53
2022-11-24T22:40:13.646Z,100477.38
2022-11-24T22:42:40.288Z,100467.66
2022-11-24T22:45:07.675Z,100448.09
2022-11-24T22:47:34.186Z,100475.84
2022-11-24T22:50:00.816Z,100473.78
2022-11-24T22:52:27.268Z,100460.13
2022-11-24T22:54:53.719Z,100447.84
2022-11-24T22:57:20.252Z,100434.75
2022-11-24T22:59:46.743Z,100477.47
2022-11-24T23:02:13.256Z,100481.47
2022-11-24T23:04:39.759Z,100477.13
2022-11-24T23:07:06.320Z,100387.09
2022-11-24T23:09:33.794Z,100468.19
2022-11-24T23:12:00.269Z,100479.66
2022-11-24T23:14:28.766Z,100399.69
2022-11-24T23:16:55.375Z,100475.28
2022-11-24T23:19:22.074Z,100439.78
2022-11-24T23:21:48.864Z,100472.72
2022-11-24T23:24:15.378Z,100472.34
2022-11-24T23:26:41.952Z,100462.66
2022-11-24T23:29:10.539Z,100431.97
2022-11-24T23:31:39.829Z,100438.50
2022-11-24T23:34:06.771Z,100463.81
2022-11-24T23:36:33.559Z,100436.75
2022-11-24T23:39:04.536Z,100429.34
2022-11-24T23:41:31.750Z,100450.91
2022-11-24T23:43:58.949Z,100406.47
2022-11-24T23:46:26.488Z,100421.47
2022-11-24T23:48:54.087Z,100465.78
2022-11-24T23:51:22.025Z,100451.31
2022-11-24T23:53:49.127Z,100450.38
2022-11-24T23:56:18.464Z,100456.63
2022-11-24T23:58:44.984Z,100440.38
